Time;durP1;ratioP1;P1;durP2;ratioP2;P2;SDS_P1;SDS_P2;PMS_P1;PMS_P2;Temp;Humidity;BMP_temperature;BMP_pressure;BME280_temperature;BME280_humidity;BME280_pressure;Samples;Min_cycle;Max_cycle;Signal;HPM_P1;HPM_P2
2021/11/29 00:00:11;;;;;;;26.85;15.55;;;;;;;;;;5100321;28;20027;-78
2021/11/29 00:02:37;;;;;;;21.17;14.98;;;;;;;;;;5092743;28;20021;-80
2021/11/29 00:05:03;;;;;;;30.90;19.40;;;;;;;;;;5091603;28;20020;-77
2021/11/29 00:07:29;;;;;;;24.65;14.95;;;;;;;;;;5084017;28;20024;-77
2021/11/29 00:09:56;;;;;;;21.55;13.98;;;;;;;;;;5078823;28;20029;-77
2021/11/29 00:12:22;;;;;;;25.50;15.70;;;;;;;;;;5085278;28;20059;-79
2021/11/29 00:14:49;;;;;;;24.65;14.68;;;;;;;;;;5090620;28;20455;-79
2021/11/29 00:17:16;;;;;;;28.75;17.35;;;;;;;;;;5081373;28;20032;-78
2021/11/29 00:19:42;;;;;;;30.63;18.90;;;;;;;;;;5097828;28;20031;-78
2021/11/29 00:22:08;;;;;;;33.28;19.27;;;;;;;;;;5100471;28;20024;-77
2021/11/29 00:24:34;;;;;;;26.55;16.30;;;;;;;;;;5091445;28;20032;-78
2021/11/29 00:27:01;;;;;;;27.17;16.00;;;;;;;;;;5079526;28;20016;-79
2021/11/29 00:29:27;;;;;;;27.13;15.88;;;;;;;;;;5095422;28;20479;-78
2021/11/29 00:31:53;;;;;;;32.95;18.15;;;;;;;;;;5083567;28;20024;-77
2021/11/29 00:34:21;;;;;;;24.92;15.57;;;;;;;;;;5093381;28;20044;-76
2021/11/29 00:36:47;;;;;;;28.50;15.48;;;;;;;;;;5080186;28;20055;-77
2021/11/29 00:39:16;;;;;;;25.67;14.82;;;;;;;;;;5081703;28;20049;-79
2021/11/29 00:41:42;;;;;;;26.60;14.43;;;;;;;;;;5078719;28;20020;-78
2021/11/29 00:44:08;;;;;;;37.72;17.38;;;;;;;;;;5083385;28;20016;-76
2021/11/29 00:46:34;;;;;;;29.50;15.52;;;;;;;;;;5091211;28;20475;-79
2021/11/29 00:49:00;;;;;;;36.08;18.77;;;;;;;;;;5089249;28;20088;-78
2021/11/29 00:51:26;;;;;;;39.63;20.08;;;;;;;;;;5083698;28;20031;-78
2021/11/29 00:53:52;;;;;;;34.75;19.50;;;;;;;;;;5094414;28;20103;-80
2021/11/29 00:56:21;;;;;;;50.45;22.48;;;;;;;;;;5078787;28;20029;-78
2021/11/29 00:58:47;;;;;;;59.10;25.02;;;;;;;;;;5089298;28;20019;-78
2021/11/29 01:01:13;;;;;;;40.17;19.92;;;;;;;;;;5099110;28;20047;-76
2021/11/29 01:03:39;;;;;;;38.60;19.17;;;;;;;;;;5082383;28;20471;-78
2021/11/29 01:06:06;;;;;;;29.63;16.17;;;;;;;;;;5099271;28;20055;-79
2021/11/29 01:08:32;;;;;;;32.25;17.35;;;;;;;;;;5090613;28;20024;-76
2021/11/29 01:10:59;;;;;;;34.67;18.85;;;;;;;;;;5087998;28;20389;-78
2021/11/29 01:13:25;;;;;;;32.00;16.75;;;;;;;;;;5099606;28;20505;-78
2021/11/29 01:15:51;;;;;;;33.22;17.85;;;;;;;;;;5080171;28;20028;-76
2021/11/29 01:18:17;;;;;;;41.42;21.73;;;;;;;;;;5083899;28;20020;-78
2021/11/29 01:20:44;;;;;;;39.35;18.90;;;;;;;;;;5088712;28;20019;-78
2021/11/29 01:23:11;;;;;;;27.88;15.70;;;;;;;;;;5078120;28;20016;-78
2021/11/29 01:25:37;;;;;;;27.30;14.57;;;;;;;;;;5078833;28;20028;-79
2021/11/29 01:28:04;;;;;;;34.28;15.98;;;;;;;;;;5078688;28;20475;-78
2021/11/29 01:30:30;;;;;;;25.92;15.82;;;;;;;;;;5078023;28;20025;-78
2021/11/29 01:32:56;;;;;;;28.75;16.17;;;;;;;;;;5088728;28;20034;-80
2021/11/29 01:35:22;;;;;;;27.15;14.90;;;;;;;;;;5083892;28;20080;-79
2021/11/29 01:37:49;;;;;;;21.88;14.00;;;;;;;;;;5080620;28;20032;-75
2021/11/29 01:40:15;;;;;;;28.30;14.40;;;;;;;;;;5091116;28;20028;-78
2021/11/29 01:42:54;;;;;;;24.52;14.23;;;;;;;;;;5086383;28;20026;-77
2021/11/29 01:45:20;;;;;;;25.38;13.05;;;;;;;;;;5084294;28;20036;-79
2021/11/29 01:47:46;;;;;;;28.27;13.05;;;;;;;;;;5094378;28;20115;-79
2021/11/29 01:50:12;;;;;;;25.48;13.73;;;;;;;;;;5093971;28;20051;-78
2021/11/29 01:52:38;;;;;;;25.45;13.57;;;;;;;;;;5078360;28;20048;-79
2021/11/29 01:55:04;;;;;;;24.60;12.82;;;;;;;;;;5090706;28;20032;-79
2021/11/29 01:57:30;;;;;;;26.77;13.85;;;;;;;;;;5082771;28;20031;-77
2021/11/29 01:59:56;;;;;;;26.25;15.00;;;;;;;;;;5096728;28;20036;-78
2021/11/29 02:02:27;;;;;;;25.75;14.00;;;;;;;;;;5092343;28;20025;-78
2021/11/29 02:04:54;;;;;;;21.60;12.95;;;;;;;;;;5088154;28;20088;-79
2021/11/29 02:07:20;;;;;;;25.27;12.90;;;;;;;;;;5084703;28;20421;-76
2021/11/29 02:09:46;;;;;;;24.00;13.23;;;;;;;;;;5093732;28;20171;-78
2021/11/29 02:12:12;;;;;;;25.02;13.70;;;;;;;;;;5093431;28;20032;-79
2021/11/29 02:14:39;;;;;;;24.77;12.68;;;;;;;;;;5086279;28;20031;-78
2021/11/29 02:17:06;;;;;;;23.35;12.10;;;;;;;;;;5097539;28;20024;-79
2021/11/29 02:19:38;;;;;;;28.17;12.57;;;;;;;;;;5098106;28;20019;-78
2021/11/29 02:22:04;;;;;;;24.77;12.23;;;;;;;;;;5092363;28;20020;-78
2021/11/29 02:24:30;;;;;;;23.17;13.32;;;;;;;;;;5088201;28;20039;-78
2021/11/29 02:26:56;;;;;;;23.80;13.30;;;;;;;;;;5100786;28;20028;-79
2021/11/29 02:29:22;;;;;;;23.25;13.50;;;;;;;;;;5100751;28;20029;-78
2021/11/29 02:31:49;;;;;;;21.00;12.32;;;;;;;;;;5099281;28;20103;-78
2021/11/29 02:34:20;;;;;;;21.60;11.73;;;;;;;;;;5099704;28;20051;-76
2021/11/29 02:36:46;;;;;;;22.45;12.18;;;;;;;;;;5091149;28;20414;-78
2021/11/29 02:39:13;;;;;;;23.25;12.38;;;;;;;;;;5081201;28;20029;-78
2021/11/29 02:41:40;;;;;;;21.52;12.75;;;;;;;;;;5100356;28;20016;-78
2021/11/29 02:44:06;;;;;;;23.45;12.85;;;;;;;;;;5084772;28;20024;-77
2021/11/29 02:46:32;;;;;;;24.17;14.15;;;;;;;;;;5099513;28;20141;-78
2021/11/29 02:49:00;;;;;;;21.25;12.90;;;;;;;;;;5101593;28;20024;-79
2021/11/29 02:51:31;;;;;;;27.15;12.77;;;;;;;;;;5087049;28;20494;-76
2021/11/29 02:54:03;;;;;;;23.85;12.00;;;;;;;;;;5098939;28;20032;-77
2021/11/29 02:56:29;;;;;;;24.65;12.48;;;;;;;;;;5093882;28;20025;-78
2021/11/29 02:58:56;;;;;;;25.52;13.30;;;;;;;;;;5091128;28;20016;-77
2021/11/29 03:01:22;;;;;;;19.42;12.30;;;;;;;;;;5085007;28;20028;-80
2021/11/29 03:03:52;;;;;;;26.27;13.07;;;;;;;;;;5085109;28;20029;-77
2021/11/29 03:06:19;;;;;;;22.80;12.70;;;;;;;;;;5081028;28;20032;-76
2021/11/29 03:08:45;;;;;;;23.38;12.65;;;;;;;;;;5080700;28;20100;-78
2021/11/29 03:11:12;;;;;;;28.02;13.70;;;;;;;;;;5081380;28;20023;-79
2021/11/29 03:13:38;;;;;;;23.17;12.07;;;;;;;;;;5095777;28;20115;-78
2021/11/29 03:16:04;;;;;;;22.83;12.68;;;;;;;;;;5096568;28;20020;-78
2021/11/29 03:18:35;;;;;;;25.45;13.00;;;;;;;;;;5086657;28;20020;-79
2021/11/29 03:21:02;;;;;;;25.48;13.05;;;;;;;;;;5098291;28;20062;-78
2021/11/29 03:23:28;;;;;;;30.40;13.80;;;;;;;;;;5096061;28;20028;-78
2021/11/29 03:25:54;;;;;;;27.20;12.38;;;;;;;;;;5083812;28;20033;-79
2021/11/29 03:28:20;;;;;;;26.83;13.63;;;;;;;;;;5093739;28;20095;-78
2021/11/29 03:30:46;;;;;;;23.80;13.38;;;;;;;;;;5089137;28;20020;-78
2021/11/29 03:33:12;;;;;;;23.23;13.05;;;;;;;;;;5087852;28;20036;-79
2021/11/29 03:35:38;;;;;;;29.40;13.32;;;;;;;;;;5096266;28;20487;-78
2021/11/29 03:38:04;;;;;;;26.90;13.15;;;;;;;;;;5099706;28;20020;-76
2021/11/29 03:40:32;;;;;;;26.00;12.40;;;;;;;;;;5093475;28;20020;-77
2021/11/29 03:42:58;;;;;;;28.48;13.23;;;;;;;;;;5091748;28;20047;-78
2021/11/29 03:45:24;;;;;;;24.48;12.55;;;;;;;;;;5099228;28;20056;-77
2021/11/29 03:47:50;;;;;;;24.92;11.93;;;;;;;;;;5097590;28;20032;-78
2021/11/29 03:50:16;;;;;;;26.20;15.15;;;;;;;;;;5095415;28;20030;-79
2021/11/29 03:52:42;;;;;;;26.80;13.80;;;;;;;;;;5080288;28;20017;-76
2021/11/29 03:55:09;;;;;;;26.75;12.48;;;;;;;;;;5080394;28;20029;-78
2021/11/29 03:57:35;;;;;;;25.83;12.32;;;;;;;;;;5095079;28;20028;-78
2021/11/29 04:00:01;;;;;;;27.85;13.23;;;;;;;;;;5096134;28;20506;-78
2021/11/29 04:02:27;;;;;;;26.15;12.55;;;;;;;;;;5077969;28;20036;-78
2021/11/29 04:04:53;;;;;;;24.15;12.43;;;;;;;;;;5089708;28;20026;-78
2021/11/29 04:07:21;;;;;;;25.83;12.25;;;;;;;;;;5098769;28;20028;-76
2021/11/29 04:09:47;;;;;;;31.73;13.60;;;;;;;;;;5097134;28;20032;-79
2021/11/29 04:12:13;;;;;;;24.25;13.52;;;;;;;;;;5099204;28;20463;-78
2021/11/29 04:14:39;;;;;;;23.90;13.18;;;;;;;;;;5090779;28;20028;-76
2021/11/29 04:17:05;;;;;;;25.67;12.98;;;;;;;;;;5079249;28;20059;-78
2021/11/29 04:19:34;;;;;;;26.45;12.82;;;;;;;;;;5095159;28;20052;-77
2021/11/29 04:22:00;;;;;;;28.17;11.88;;;;;;;;;;5078900;28;20016;-78
2021/11/29 04:24:26;;;;;;;22.65;11.00;;;;;;;;;;5079618;28;20082;-78
2021/11/29 04:26:54;;;;;;;26.23;12.55;;;;;;;;;;5078327;28;20479;-80
2021/11/29 04:29:25;;;;;;;20.83;11.13;;;;;;;;;;5093262;28;20016;-79
2021/11/29 04:31:51;;;;;;;25.23;11.95;;;;;;;;;;5081125;28;20499;-79
2021/11/29 04:34:17;;;;;;;24.58;12.43;;;;;;;;;;5093474;28;20052;-78
2021/11/29 04:36:44;;;;;;;24.60;11.85;;;;;;;;;;5087471;28;20035;-78
2021/11/29 04:39:10;;;;;;;27.58;13.55;;;;;;;;;;5086191;28;20035;-78
2021/11/29 04:41:36;;;;;;;27.17;13.48;;;;;;;;;;5095290;28;20027;-76
2021/11/29 04:44:02;;;;;;;26.38;13.32;;;;;;;;;;5079074;28;20100;-77
2021/11/29 04:46:28;;;;;;;22.92;11.75;;;;;;;;;;5084885;28;20019;-79
2021/11/29 04:48:54;;;;;;;19.25;12.43;;;;;;;;;;5098456;28;20024;-78
2021/11/29 04:51:20;;;;;;;20.60;11.73;;;;;;;;;;5084832;28;20463;-80
2021/11/29 04:53:46;;;;;;;23.30;11.70;;;;;;;;;;5095792;28;20035;-78
2021/11/29 04:56:12;;;;;;;21.35;11.98;;;;;;;;;;5082858;28;20099;-77
2021/11/29 04:58:38;;;;;;;22.38;12.88;;;;;;;;;;5098408;28;20055;-80
2021/11/29 05:01:05;;;;;;;22.30;11.90;;;;;;;;;;5099194;28;20020;-78
2021/11/29 05:03:31;;;;;;;23.13;13.25;;;;;;;;;;5083740;28;20035;-76
2021/11/29 05:05:57;;;;;;;21.38;11.55;;;;;;;;;;5080668;28;20040;-77
2021/11/29 05:08:23;;;;;;;23.88;12.25;;;;;;;;;;5092480;28;20035;-78
2021/11/29 05:10:49;;;;;;;21.08;10.88;;;;;;;;;;5082141;28;20027;-76
2021/11/29 05:13:18;;;;;;;19.38;11.10;;;;;;;;;;5078792;28;20104;-78
2021/11/29 05:15:44;;;;;;;23.52;11.05;;;;;;;;;;5088129;28;20023;-79
2021/11/29 05:18:10;;;;;;;22.05;9.80;;;;;;;;;;5079339;28;20040;-77
2021/11/29 05:20:36;;;;;;;27.27;11.45;;;;;;;;;;5078184;28;20024;-78
2021/11/29 05:23:02;;;;;;;19.13;11.30;;;;;;;;;;5098102;28;20165;-78
2021/11/29 05:25:28;;;;;;;24.13;11.13;;;;;;;;;;5097961;28;20481;-77
2021/11/29 05:27:54;;;;;;;18.83;10.63;;;;;;;;;;5095501;28;20137;-78
2021/11/29 05:30:21;;;;;;;18.40;10.77;;;;;;;;;;5090051;28;20478;-79
2021/11/29 05:32:48;;;;;;;19.73;9.93;;;;;;;;;;5090578;28;20039;-78
2021/11/29 05:35:14;;;;;;;19.38;9.73;;;;;;;;;;5098926;28;20036;-79
2021/11/29 05:37:40;;;;;;;18.45;10.30;;;;;;;;;;5085947;28;20031;-79
2021/11/29 05:40:06;;;;;;;19.80;9.85;;;;;;;;;;5098738;28;20555;-76
2021/11/29 05:42:32;;;;;;;19.08;9.30;;;;;;;;;;5092729;28;20142;-77
2021/11/29 05:44:59;;;;;;;19.17;10.18;;;;;;;;;;5091911;28;20099;-80
2021/11/29 05:47:28;;;;;;;17.92;9.85;;;;;;;;;;5085037;28;20497;-77
2021/11/29 05:49:54;;;;;;;19.42;10.07;;;;;;;;;;5080437;28;20032;-77
2021/11/29 05:52:20;;;;;;;18.40;10.20;;;;;;;;;;5099701;28;20039;-79
2021/11/29 05:54:46;;;;;;;19.98;10.05;;;;;;;;;;5098597;28;20087;-77
2021/11/29 05:57:13;;;;;;;21.85;10.95;;;;;;;;;;5100223;28;20028;-78
2021/11/29 05:59:39;;;;;;;18.80;10.65;;;;;;;;;;5103926;28;20039;-78
2021/11/29 06:02:05;;;;;;;17.75;9.80;;;;;;;;;;5104576;28;20039;-77
2021/11/29 06:04:31;;;;;;;16.85;9.68;;;;;;;;;;5095838;28;20033;-77
2021/11/29 06:06:58;;;;;;;15.00;9.02;;;;;;;;;;5094304;28;20032;-79
2021/11/29 06:09:24;;;;;;;17.02;9.55;;;;;;;;;;5089521;28;20039;-79
2021/11/29 06:11:50;;;;;;;19.05;8.95;;;;;;;;;;5084449;28;20043;-78
2021/11/29 06:14:16;;;;;;;13.80;9.00;;;;;;;;;;5101744;28;20032;-79
2021/11/29 06:16:42;;;;;;;17.70;9.32;;;;;;;;;;5093902;28;20025;-79
2021/11/29 06:19:08;;;;;;;20.40;11.15;;;;;;;;;;5082643;28;20024;-77
2021/11/29 06:21:34;;;;;;;21.05;9.52;;;;;;;;;;5098766;28;20052;-80
2021/11/29 06:24:04;;;;;;;17.35;9.40;;;;;;;;;;5084160;28;20056;-78
2021/11/29 06:26:30;;;;;;;18.58;10.70;;;;;;;;;;5097757;28;20030;-78
2021/11/29 06:28:56;;;;;;;17.63;9.60;;;;;;;;;;5101781;28;20020;-78
2021/11/29 06:31:22;;;;;;;19.35;10.27;;;;;;;;;;5089165;28;20447;-78
2021/11/29 06:33:51;;;;;;;13.68;8.05;;;;;;;;;;5098682;28;20027;-78
2021/11/29 06:36:17;;;;;;;15.82;8.35;;;;;;;;;;5101126;28;20475;-76
2021/11/29 06:38:45;;;;;;;18.33;8.95;;;;;;;;;;5100746;28;20012;-78
2021/11/29 06:41:14;;;;;;;16.92;8.30;;;;;;;;;;5101786;28;20420;-79
2021/11/29 06:43:43;;;;;;;15.68;9.13;;;;;;;;;;5101103;28;20024;-77
2021/11/29 06:46:12;;;;;;;19.05;8.55;;;;;;;;;;5091650;28;20051;-77
2021/11/29 06:48:46;;;;;;;17.58;9.30;;;;;;;;;;5101561;28;20020;-78
2021/11/29 06:51:12;;;;;;;18.13;9.20;;;;;;;;;;5100748;28;20389;-77
2021/11/29 06:53:40;;;;;;;16.45;9.15;;;;;;;;;;5100906;28;20374;-78
2021/11/29 06:56:06;;;;;;;16.58;8.57;;;;;;;;;;5091828;28;20031;-78
2021/11/29 06:58:33;;;;;;;15.27;6.85;;;;;;;;;;5093659;28;20387;-77
2021/11/29 07:00:59;;;;;;;13.77;8.23;;;;;;;;;;5091906;28;20031;-77
2021/11/29 07:03:25;;;;;;;16.50;7.68;;;;;;;;;;5086684;28;20027;-78
2021/11/29 07:05:55;;;;;;;18.67;8.20;;;;;;;;;;5088260;28;20039;-79
2021/11/29 07:08:21;;;;;;;18.23;7.45;;;;;;;;;;5087285;28;20035;-77
2021/11/29 07:10:47;;;;;;;12.70;8.20;;;;;;;;;;5098308;28;20040;-79
2021/11/29 07:13:15;;;;;;;12.80;6.88;;;;;;;;;;5095625;28;20020;-79
2021/11/29 07:15:44;;;;;;;13.00;7.10;;;;;;;;;;5101402;28;20112;-77
2021/11/29 07:18:10;;;;;;;9.13;6.00;;;;;;;;;;5081967;28;20073;-76
2021/11/29 07:20:36;;;;;;;8.93;5.57;;;;;;;;;;5095119;28;20093;-78
2021/11/29 07:23:04;;;;;;;14.65;6.65;;;;;;;;;;5086143;28;20114;-78
2021/11/29 07:25:30;;;;;;;10.82;5.32;;;;;;;;;;5082432;28;20035;-77
2021/11/29 07:27:57;;;;;;;10.25;5.90;;;;;;;;;;5082391;28;20032;-81
2021/11/29 07:30:24;;;;;;;14.23;5.43;;;;;;;;;;5082515;28;20121;-78
2021/11/29 07:32:53;;;;;;;8.27;5.25;;;;;;;;;;5082787;28;20025;-78
2021/11/29 07:35:23;;;;;;;10.32;5.40;;;;;;;;;;5082516;28;20056;-78
2021/11/29 07:37:49;;;;;;;9.13;5.72;;;;;;;;;;5083150;28;20017;-77
2021/11/29 07:40:16;;;;;;;11.35;6.28;;;;;;;;;;5083462;28;20025;-79
2021/11/29 07:42:42;;;;;;;13.35;6.40;;;;;;;;;;5084515;28;20024;-77
2021/11/29 07:45:12;;;;;;;11.32;6.53;;;;;;;;;;5081985;28;20039;-78
2021/11/29 07:47:43;;;;;;;13.52;5.97;;;;;;;;;;5102768;28;20042;-78
2021/11/29 07:50:11;;;;;;;10.13;6.10;;;;;;;;;;5096516;28;20034;-81
2021/11/29 07:52:37;;;;;;;13.10;5.88;;;;;;;;;;5096630;28;20499;-78
2021/11/29 07:55:11;;;;;;;13.25;6.50;;;;;;;;;;5106235;28;20031;-77
2021/11/29 07:57:37;;;;;;;9.07;5.40;;;;;;;;;;5087565;28;20025;-79
2021/11/29 08:00:08;;;;;;;10.82;5.63;;;;;;;;;;5103534;28;20035;-76
2021/11/29 08:02:34;;;;;;;11.07;5.85;;;;;;;;;;5108004;28;20021;-77
2021/11/29 08:05:00;;;;;;;14.48;7.05;;;;;;;;;;5107266;28;20463;-81
2021/11/29 08:07:27;;;;;;;12.05;6.55;;;;;;;;;;5108076;28;20087;-79
2021/11/29 08:09:53;;;;;;;13.90;6.22;;;;;;;;;;5108110;28;20252;-77
2021/11/29 08:12:19;;;;;;;11.60;5.50;;;;;;;;;;5106126;28;20027;-73
2021/11/29 08:14:47;;;;;;;11.35;6.38;;;;;;;;;;5105512;28;20028;-80
2021/11/29 08:17:13;;;;;;;14.95;6.25;;;;;;;;;;5091700;28;20021;-76
2021/11/29 08:19:39;;;;;;;12.52;6.32;;;;;;;;;;5086053;28;20040;-76
2021/11/29 08:22:05;;;;;;;11.23;6.25;;;;;;;;;;5084225;28;20379;-80
2021/11/29 08:24:32;;;;;;;13.23;6.72;;;;;;;;;;5084611;28;20029;-77
2021/11/29 08:27:03;;;;;;;12.38;6.72;;;;;;;;;;5090106;28;20057;-78
2021/11/29 08:29:29;;;;;;;13.98;6.22;;;;;;;;;;5103674;28;20052;-80
2021/11/29 08:31:55;;;;;;;13.68;6.63;;;;;;;;;;5092296;28;20054;-77
2021/11/29 08:34:21;;;;;;;11.95;6.60;;;;;;;;;;5109820;28;20052;-78
2021/11/29 08:36:47;;;;;;;16.63;7.40;;;;;;;;;;5090124;28;20035;-78
2021/11/29 08:39:13;;;;;;;17.17;8.57;;;;;;;;;;5102163;28;20052;-76
2021/11/29 08:41:40;;;;;;;13.10;7.63;;;;;;;;;;5102080;28;20024;-78
2021/11/29 08:44:06;;;;;;;13.82;7.47;;;;;;;;;;5088337;28;20020;-78
2021/11/29 08:46:33;;;;;;;14.52;6.90;;;;;;;;;;5085510;28;20025;-79
2021/11/29 08:48:59;;;;;;;14.48;6.55;;;;;;;;;;5083423;28;20028;-77
2021/11/29 08:51:25;;;;;;;15.65;7.25;;;;;;;;;;5087325;28;20025;-79
2021/11/29 08:53:51;;;;;;;11.25;6.90;;;;;;;;;;5108023;28;20109;-78
2021/11/29 08:56:21;;;;;;;16.38;7.25;;;;;;;;;;5101071;28;20486;-76
2021/11/29 08:58:47;;;;;;;15.30;7.22;;;;;;;;;;5085258;28;20475;-81
2021/11/29 09:01:13;;;;;;;14.02;6.05;;;;;;;;;;5090908;28;20032;-79
2021/11/29 09:03:40;;;;;;;14.35;6.40;;;;;;;;;;5104182;28;20402;-78
2021/11/29 09:06:27;;;;;;;12.30;6.45;;;;;;;;;;5105483;28;20030;-75
2021/11/29 09:08:52;;;;;;;13.93;6.70;;;;;;;;;;5109335;28;20088;-76
2021/11/29 09:11:19;;;;;;;13.93;6.75;;;;;;;;;;5107442;28;20035;-75
2021/11/29 09:13:45;;;;;;;11.43;6.22;;;;;;;;;;5106645;28;20050;-75
2021/11/29 09:16:13;;;;;;;11.57;6.55;;;;;;;;;;5105102;28;20028;-75
2021/11/29 09:18:39;;;;;;;13.80;6.60;;;;;;;;;;5087760;28;20107;-79
2021/11/29 09:21:06;;;;;;;14.90;6.43;;;;;;;;;;5081700;28;20009;-77
2021/11/29 09:23:32;;;;;;;11.05;6.57;;;;;;;;;;5085834;28;20025;-75
2021/11/29 09:25:59;;;;;;;14.15;6.40;;;;;;;;;;5087004;28;20032;-77
2021/11/29 09:28:25;;;;;;;11.98;6.53;;;;;;;;;;5088040;28;20025;-74
2021/11/29 09:30:54;;;;;;;13.57;6.60;;;;;;;;;;5088003;28;20092;-76
2021/11/29 09:33:21;;;;;;;11.80;6.40;;;;;;;;;;5086703;28;20046;-77
2021/11/29 09:35:47;;;;;;;13.63;7.07;;;;;;;;;;5089218;28;20048;-76
2021/11/29 09:38:14;;;;;;;12.07;6.43;;;;;;;;;;5100215;28;20020;-77
2021/11/29 09:40:41;;;;;;;12.50;8.00;;;;;;;;;;5107282;28;20097;-77
2021/11/29 09:43:09;;;;;;;11.93;7.00;;;;;;;;;;5108931;28;20081;-76
2021/11/29 09:45:36;;;;;;;14.27;6.57;;;;;;;;;;5108657;28;20078;-76
2021/11/29 09:48:03;;;;;;;12.90;7.00;;;;;;;;;;5107361;28;20043;-76
2021/11/29 09:50:32;;;;;;;13.95;7.90;;;;;;;;;;5107460;28;20035;-76
2021/11/29 09:52:58;;;;;;;14.95;7.80;;;;;;;;;;5106215;28;20031;-78
2021/11/29 09:55:26;;;;;;;13.15;7.70;;;;;;;;;;5102984;28;20032;-78
2021/11/29 09:57:52;;;;;;;13.98;7.88;;;;;;;;;;5102889;28;20024;-77
2021/11/29 10:00:27;;;;;;;17.33;8.63;;;;;;;;;;5094667;28;20043;-76
2021/11/29 10:02:53;;;;;;;15.70;7.93;;;;;;;;;;5088958;28;20024;-75
2021/11/29 10:05:21;;;;;;;16.02;8.25;;;;;;;;;;5105315;28;20031;-75
2021/11/29 10:07:49;;;;;;;14.10;9.15;;;;;;;;;;5105700;28;20030;-76
2021/11/29 10:10:18;;;;;;;19.25;9.52;;;;;;;;;;5103226;28;20026;-76
2021/11/29 10:12:46;;;;;;;17.50;9.63;;;;;;;;;;5101324;28;20060;-76
2021/11/29 10:15:23;;;;;;;22.85;10.20;;;;;;;;;;5102789;28;20055;-76
2021/11/29 10:17:51;;;;;;;19.38;10.27;;;;;;;;;;5085397;28;20375;-76
2021/11/29 10:20:17;;;;;;;17.88;10.68;;;;;;;;;;5085623;28;20115;-77
2021/11/29 10:23:16;;;;;;;20.33;9.65;;;;;;;;;;5091147;28;20065;-77
2021/11/29 10:25:43;;;;;;;17.23;9.43;;;;;;;;;;5093313;28;20044;-80
2021/11/29 10:28:22;;;;;;;13.93;8.13;;;;;;;;;;5085858;28;20037;-80
2021/11/29 10:31:03;;;;;;;15.98;8.95;;;;;;;;;;5090345;28;20260;-79
2021/11/29 10:33:30;;;;;;;19.58;9.40;;;;;;;;;;5101196;28;20036;-80
2021/11/29 10:36:07;;;;;;;21.05;10.10;;;;;;;;;;5103801;28;20088;-79
2021/11/29 10:38:33;;;;;;;23.05;12.00;;;;;;;;;;5098937;28;20021;-77
2021/11/29 10:40:59;;;;;;;19.42;11.02;;;;;;;;;;5098203;28;20082;-77
2021/11/29 10:43:36;;;;;;;18.75;10.30;;;;;;;;;;5083734;28;20037;-79
2021/11/29 10:46:18;;;;;;;18.17;9.32;;;;;;;;;;5080216;28;20036;-75
2021/11/29 10:48:44;;;;;;;25.08;10.18;;;;;;;;;;5104752;28;20028;-78
2021/11/29 10:51:12;;;;;;;19.52;8.93;;;;;;;;;;5108808;28;20031;-75
2021/11/29 10:53:50;;;;;;;16.63;9.10;;;;;;;;;;5084479;28;20032;-78
2021/11/29 10:56:17;;;;;;;18.83;9.68;;;;;;;;;;5088801;28;20440;-78
2021/11/29 10:58:44;;;;;;;17.85;11.43;;;;;;;;;;5108634;28;20034;-77
2021/11/29 11:01:11;;;;;;;16.55;9.98;;;;;;;;;;5107886;28;20036;-79
2021/11/29 11:04:05;;;;;;;19.77;11.68;;;;;;;;;;5103945;28;20021;-78
2021/11/29 11:06:36;;;;;;;20.50;11.57;;;;;;;;;;5106637;28;20028;-77
2021/11/29 11:09:09;;;;;;;17.58;10.45;;;;;;;;;;5107438;28;20031;-80
2021/11/29 11:11:38;;;;;;;19.90;9.55;;;;;;;;;;5100755;28;20031;-80
2021/11/29 11:14:06;;;;;;;18.60;10.52;;;;;;;;;;5088512;28;20024;-78
2021/11/29 11:16:42;;;;;;;18.33;9.80;;;;;;;;;;5091269;28;20028;-75
2021/11/29 11:19:22;;;;;;;18.42;10.18;;;;;;;;;;5080364;28;20529;-76
2021/11/29 11:21:48;;;;;;;28.77;10.25;;;;;;;;;;5094595;28;20024;-77
2021/11/29 11:24:18;;;;;;;18.38;9.80;;;;;;;;;;5082146;28;20051;-77
2021/11/29 11:26:58;;;;;;;17.70;9.32;;;;;;;;;;5097674;28;20035;-79
2021/11/29 11:29:42;;;;;;;24.65;10.20;;;;;;;;;;5098046;28;20019;-76
2021/11/29 11:32:17;;;;;;;20.85;10.65;;;;;;;;;;5094911;28;20005;-79
2021/11/29 11:34:47;;;;;;;21.60;11.23;;;;;;;;;;5090366;28;20060;-80
2021/11/29 11:37:15;;;;;;;24.33;10.88;;;;;;;;;;5091019;28;20146;-79
2021/11/29 11:39:42;;;;;;;22.85;12.35;;;;;;;;;;5088964;28;20024;-78
2021/11/29 11:42:09;;;;;;;24.23;10.70;;;;;;;;;;5124731;28;20060;-78
2021/11/29 11:44:38;;;;;;;21.02;10.68;;;;;;;;;;5128702;28;20019;-79
2021/11/29 11:47:05;;;;;;;21.33;12.50;;;;;;;;;;5130515;28;20049;-79
2021/11/29 11:49:34;;;;;;;18.23;9.40;;;;;;;;;;5131657;28;20035;-80
2021/11/29 11:52:00;;;;;;;21.67;12.05;;;;;;;;;;5101768;28;20457;-80
2021/11/29 11:54:26;;;;;;;21.17;10.32;;;;;;;;;;5095824;28;20029;-77
2021/11/29 11:56:52;;;;;;;21.15;11.45;;;;;;;;;;5127982;28;20035;-77
2021/11/29 11:59:20;;;;;;;22.05;10.82;;;;;;;;;;5127692;28;20031;-77
2021/11/29 12:01:49;;;;;;;24.52;13.02;;;;;;;;;;5127274;28;20016;-78
2021/11/29 12:04:17;;;;;;;20.50;11.30;;;;;;;;;;5125241;28;20027;-80
2021/11/29 12:06:48;;;;;;;23.35;11.23;;;;;;;;;;5126253;28;20026;-78
2021/11/29 12:09:15;;;;;;;19.15;10.57;;;;;;;;;;5108771;28;20020;-77
2021/11/29 12:11:45;;;;;;;21.13;10.32;;;;;;;;;;5108602;28;20020;-81
2021/11/29 12:14:11;;;;;;;27.75;12.05;;;;;;;;;;5109814;28;20016;-80
2021/11/29 12:16:42;;;;;;;19.17;11.20;;;;;;;;;;5095636;28;20024;-78
2021/11/29 12:19:27;;;;;;;26.92;15.00;;;;;;;;;;5107984;28;20129;-78
2021/11/29 12:21:54;;;;;;;27.67;12.48;;;;;;;;;;5106920;28;20041;-78
2021/11/29 12:24:22;;;;;;;20.90;12.15;;;;;;;;;;5103194;28;20017;-78
2021/11/29 12:26:48;;;;;;;25.70;12.95;;;;;;;;;;5086859;28;20052;-80
2021/11/29 12:29:21;;;;;;;26.13;12.02;;;;;;;;;;5086291;28;20027;-78
2021/11/29 12:31:50;;;;;;;23.77;12.48;;;;;;;;;;5085646;28;20019;-79
2021/11/29 12:34:41;;;;;;;27.80;13.00;;;;;;;;;;5099688;28;20046;-80
2021/11/29 12:37:16;;;;;;;22.65;12.45;;;;;;;;;;5092911;28;20055;-79
2021/11/29 12:39:42;;;;;;;22.55;13.93;;;;;;;;;;5096524;28;20550;-79
2021/11/29 12:42:26;;;;;;;22.95;11.80;;;;;;;;;;5086760;28;20036;-78
2021/11/29 12:44:52;;;;;;;25.20;13.15;;;;;;;;;;5118396;28;20027;-79
2021/11/29 12:47:18;;;;;;;24.17;11.52;;;;;;;;;;5108160;28;20517;-77
2021/11/29 12:49:44;;;;;;;21.48;11.20;;;;;;;;;;5104593;28;20471;-78
2021/11/29 12:52:31;;;;;;;18.70;10.65;;;;;;;;;;5086720;28;20035;-78
2021/11/29 12:54:58;;;;;;;19.70;10.00;;;;;;;;;;5108753;28;20127;-80
2021/11/29 12:57:26;;;;;;;21.20;9.05;;;;;;;;;;5086329;28;20103;-80
2021/11/29 13:00:12;;;;;;;17.42;8.77;;;;;;;;;;5085762;28;20059;-77
2021/11/29 13:02:50;;;;;;;15.93;6.68;;;;;;;;;;5114149;28;20047;-78
2021/11/29 13:05:26;;;;;;;12.88;5.72;;;;;;;;;;5105772;28;20032;-79
2021/11/29 13:07:52;;;;;;;;;;;;;;;;;;5087621;28;20028;-78
2021/11/29 13:10:36;;;;;;;13.95;5.70;;;;;;;;;;5084620;28;19909;-76
2021/11/29 13:13:21;;;;;;;13.77;5.70;;;;;;;;;;5097941;28;20065;-79
2021/11/29 13:15:54;;;;;;;14.85;6.68;;;;;;;;;;5102038;28;20401;-77
2021/11/29 13:18:49;;;;;;;11.18;5.97;;;;;;;;;;5103954;28;20035;-80
2021/11/29 13:21:20;;;;;;;12.10;6.53;;;;;;;;;;5101475;28;20237;-78
2021/11/29 13:23:49;;;;;;;18.15;11.15;;;;;;;;;;5103142;28;20028;-79
2021/11/29 13:26:16;;;;;;;20.60;10.52;;;;;;;;;;5106225;28;20030;-78
2021/11/29 13:28:43;;;;;;;16.92;7.65;;;;;;;;;;5101224;28;20390;-77
2021/11/29 13:31:10;;;;;;;11.80;7.03;;;;;;;;;;5084561;28;20028;-78
2021/11/29 13:33:37;;;;;;;13.07;8.52;;;;;;;;;;5084491;28;20056;-80
2021/11/29 13:36:09;;;;;;;12.13;7.70;;;;;;;;;;5087071;28;20048;-81
2021/11/29 13:38:37;;;;;;;10.70;5.97;;;;;;;;;;5100416;28;20028;-77
2021/11/29 13:41:04;;;;;;;14.82;9.32;;;;;;;;;;5083157;28;20548;-78
2021/11/29 13:43:30;;;;;;;27.58;17.42;;;;;;;;;;5081534;28;20028;-79
2021/11/29 13:45:56;;;;;;;19.08;11.57;;;;;;;;;;5085240;28;20285;-79
2021/11/29 13:48:24;;;;;;;15.68;9.45;;;;;;;;;;5084520;28;20101;-78
2021/11/29 13:50:53;;;;;;;11.13;7.35;;;;;;;;;;5079555;28;20475;-78
2021/11/29 13:53:27;;;;;;;9.13;6.32;;;;;;;;;;5083725;28;20028;-78
2021/11/29 13:55:58;;;;;;;16.88;8.27;;;;;;;;;;5082705;28;20027;-78
2021/11/29 13:58:26;;;;;;;17.15;9.10;;;;;;;;;;5082122;28;20017;-77
2021/11/29 14:01:00;;;;;;;10.82;5.93;;;;;;;;;;5098687;28;20094;-78
2021/11/29 14:03:27;;;;;;;5.25;4.10;;;;;;;;;;5097314;28;20017;-78
2021/11/29 14:06:00;;;;;;;5.47;3.60;;;;;;;;;;5086286;28;20366;-77
2021/11/29 14:08:32;;;;;;;5.22;3.10;;;;;;;;;;5086562;28;20036;-79
2021/11/29 14:11:28;;;;;;;6.97;3.72;;;;;;;;;;5088427;28;20032;-78
2021/11/29 14:13:58;;;;;;;5.60;3.60;;;;;;;;;;5083894;28;20039;-79
2021/11/29 14:16:27;;;;;;;9.77;5.13;;;;;;;;;;5089372;28;20091;-77
2021/11/29 14:18:56;;;;;;;7.05;4.25;;;;;;;;;;5090485;28;20024;-79
2021/11/29 14:21:23;;;;;;;5.00;3.40;;;;;;;;;;5092208;28;20048;-79
2021/11/29 14:23:49;;;;;;;6.20;4.03;;;;;;;;;;5096566;28;20031;-81
2021/11/29 14:26:34;;;;;;;8.32;3.38;;;;;;;;;;5124144;28;20028;-80
2021/11/29 14:29:02;;;;;;;6.07;3.47;;;;;;;;;;5098856;28;20478;-79